sensor_id;sensor_type;location;lat;lon;timestamp;temperature;humidity
6443;DHT22;3254;47.372;8.512;2023-10-13T00:01:47;13.40;1.00
6443;DHT22;3254;47.372;8.512;2023-10-13T00:04:12;13.10;1.00
6443;DHT22;3254;47.372;8.512;2023-10-13T00:06:38;13.00;1.00
6443;DHT22;3254;47.372;8.512;2023-10-13T00:09:04;13.00;1.00
6443;DHT22;3254;47.372;8.512;2023-10-13T00:11:30;12.90;1.00
6443;DHT22;3254;47.372;8.512;2023-10-13T00:13:55;12.80;1.00
6443;DHT22;3254;47.372;8.512;2023-10-13T00:16:22;12.80;1.00
6443;DHT22;3254;47.372;8.512;2023-10-13T00:18:48;12.70;1.00
6443;DHT22;3254;47.372;8.512;2023-10-13T00:21:16;12.80;1.00
6443;DHT22;3254;47.372;8.512;2023-10-13T00:23:46;12.90;1.00
6443;DHT22;3254;47.372;8.512;2023-10-13T00:26:25;12.90;1.00
6443;DHT22;3254;47.372;8.512;2023-10-13T00:28:58;12.80;1.00
6443;DHT22;3254;47.372;8.512;2023-10-13T00:31:42;12.40;1.00
6443;DHT22;3254;47.372;8.512;2023-10-13T00:34:12;12.20;1.00
6443;DHT22;3254;47.372;8.512;2023-10-13T00:36:44;12.10;1.00
6443;DHT22;3254;47.372;8.512;2023-10-13T00:39:32;12.10;1.00
6443;DHT22;3254;47.372;8.512;2023-10-13T00:42:04;12.30;1.00
6443;DHT22;3254;47.372;8.512;2023-10-13T00:44:34;12.50;1.00
6443;DHT22;3254;47.372;8.512;2023-10-13T00:47:14;12.70;1.00
6443;DHT22;3254;47.372;8.512;2023-10-13T00:49:44;12.80;1.00
6443;DHT22;3254;47.372;8.512;2023-10-13T00:52:14;12.80;1.00
6443;DHT22;3254;47.372;8.512;2023-10-13T00:54:42;12.90;1.00
6443;DHT22;3254;47.372;8.512;2023-10-13T00:57:15;13.00;1.00
6443;DHT22;3254;47.372;8.512;2023-10-13T00:59:55;12.80;1.00
6443;DHT22;3254;47.372;8.512;2023-10-13T01:02:22;12.60;1.00
6443;DHT22;3254;47.372;8.512;2023-10-13T01:05:07;12.50;1.00
6443;DHT22;3254;47.372;8.512;2023-10-13T01:07:35;12.50;1.00
6443;DHT22;3254;47.372;8.512;2023-10-13T01:10:12;12.40;1.00
6443;DHT22;3254;47.372;8.512;2023-10-13T01:12:41;12.50;1.00
6443;DHT22;3254;47.372;8.512;2023-10-13T01:15:11;12.50;1.00
6443;DHT22;3254;47.372;8.512;2023-10-13T01:17:39;12.40;1.00
6443;DHT22;3254;47.372;8.512;2023-10-13T01:20:04;12.40;1.00
6443;DHT22;3254;47.372;8.512;2023-10-13T01:22:31;12.20;1.00
6443;DHT22;3254;47.372;8.512;2023-10-13T01:24:57;12.20;1.00
6443;DHT22;3254;47.372;8.512;2023-10-13T01:27:36;12.10;1.00
6443;DHT22;3254;47.372;8.512;2023-10-13T01:30:04;12.00;1.00
6443;DHT22;3254;47.372;8.512;2023-10-13T01:32:48;11.80;1.00
6443;DHT22;3254;47.372;8.512;2023-10-13T01:35:16;11.70;1.00
6443;DHT22;3254;47.372;8.512;2023-10-13T01:37:44;11.70;1.00
6443;DHT22;3254;47.372;8.512;2023-10-13T01:40:11;11.60;1.00
6443;DHT22;3254;47.372;8.512;2023-10-13T01:42:38;11.60;1.00
6443;DHT22;3254;47.372;8.512;2023-10-13T01:45:04;11.50;1.00
6443;DHT22;3254;47.372;8.512;2023-10-13T01:47:33;11.50;1.00
6443;DHT22;3254;47.372;8.512;2023-10-13T01:49:59;11.80;1.00
6443;DHT22;3254;47.372;8.512;2023-10-13T01:52:38;11.90;1.00
6443;DHT22;3254;47.372;8.512;2023-10-13T01:55:04;11.90;1.00
6443;DHT22;3254;47.372;8.512;2023-10-13T01:57:31;12.00;1.00
6443;DHT22;3254;47.372;8.512;2023-10-13T01:59:57;11.80;1.00
6443;DHT22;3254;47.372;8.512;2023-10-13T02:02:29;11.80;1.00
6443;DHT22;3254;47.372;8.512;2023-10-13T02:04:55;11.60;1.00
6443;DHT22;3254;47.372;8.512;2023-10-13T02:07:23;11.60;1.00
6443;DHT22;3254;47.372;8.512;2023-10-13T02:10:00;11.60;1.00
6443;DHT22;3254;47.372;8.512;2023-10-13T02:12:30;11.50;1.00
6443;DHT22;3254;47.372;8.512;2023-10-13T02:15:03;11.60;1.00
6443;DHT22;3254;47.372;8.512;2023-10-13T02:17:30;11.60;1.00
6443;DHT22;3254;47.372;8.512;2023-10-13T02:20:09;11.50;1.00
6443;DHT22;3254;47.372;8.512;2023-10-13T02:22:40;11.50;1.00
6443;DHT22;3254;47.372;8.512;2023-10-13T02:25:15;11.40;1.00
6443;DHT22;3254;47.372;8.512;2023-10-13T02:27:43;11.40;1.00
6443;DHT22;3254;47.372;8.512;2023-10-13T02:30:09;11.50;1.00
6443;DHT22;3254;47.372;8.512;2023-10-13T02:32:40;11.50;1.00
6443;DHT22;3254;47.372;8.512;2023-10-13T02:35:09;11.60;1.00
6443;DHT22;3254;47.372;8.512;2023-10-13T02:37:41;11.50;1.00
6443;DHT22;3254;47.372;8.512;2023-10-13T02:40:21;11.30;1.00
6443;DHT22;3254;47.372;8.512;2023-10-13T02:42:48;11.20;1.00
6443;DHT22;3254;47.372;8.512;2023-10-13T02:45:14;11.10;1.00
6443;DHT22;3254;47.372;8.512;2023-10-13T02:47:40;11.00;1.00
6443;DHT22;3254;47.372;8.512;2023-10-13T02:50:08;11.10;1.00
6443;DHT22;3254;47.372;8.512;2023-10-13T02:52:38;11.10;1.00
6443;DHT22;3254;47.372;8.512;2023-10-13T02:55:07;11.20;1.00
6443;DHT22;3254;47.372;8.512;2023-10-13T02:57:35;11.10;1.00
6443;DHT22;3254;47.372;8.512;2023-10-13T03:00:01;11.10;1.00
6443;DHT22;3254;47.372;8.512;2023-10-13T03:02:47;11.00;1.00
6443;DHT22;3254;47.372;8.512;2023-10-13T03:05:23;10.90;1.00
6443;DHT22;3254;47.372;8.512;2023-10-13T03:07:49;10.90;1.00
6443;DHT22;3254;47.372;8.512;2023-10-13T03:10:16;11.00;1.00
6443;DHT22;3254;47.372;8.512;2023-10-13T03:12:44;11.10;1.00
6443;DHT22;3254;47.372;8.512;2023-10-13T03:15:14;11.10;1.00
6443;DHT22;3254;47.372;8.512;2023-10-13T03:17:44;11.10;1.00
6443;DHT22;3254;47.372;8.512;2023-10-13T03:20:18;11.10;1.00
6443;DHT22;3254;47.372;8.512;2023-10-13T03:23:04;10.90;1.00
6443;DHT22;3254;47.372;8.512;2023-10-13T03:25:34;10.90;1.00
6443;DHT22;3254;47.372;8.512;2023-10-13T03:28:08;10.70;1.00
6443;DHT22;3254;47.372;8.512;2023-10-13T03:30:39;10.70;1.00
6443;DHT22;3254;47.372;8.512;2023-10-13T03:33:07;10.60;1.00
6443;DHT22;3254;47.372;8.512;2023-10-13T03:35:35;10.60;1.00
6443;DHT22;3254;47.372;8.512;2023-10-13T03:38:06;10.60;1.00
6443;DHT22;3254;47.372;8.512;2023-10-13T03:40:45;10.70;1.00
6443;DHT22;3254;47.372;8.512;2023-10-13T03:43:14;10.70;1.70
6443;DHT22;3254;47.372;8.512;2023-10-13T03:45:49;10.60;1.00
6443;DHT22;3254;47.372;8.512;2023-10-13T03:48:18;10.70;1.60
6443;DHT22;3254;47.372;8.512;2023-10-13T03:50:51;10.80;1.00
6443;DHT22;3254;47.372;8.512;2023-10-13T03:53:33;10.70;1.00
6443;DHT22;3254;47.372;8.512;2023-10-13T03:56:00;10.60;1.00
6443;DHT22;3254;47.372;8.512;2023-10-13T03:58:38;10.60;4.30
6443;DHT22;3254;47.372;8.512;2023-10-13T04:01:07;10.50;4.10
6443;DHT22;3254;47.372;8.512;2023-10-13T04:03:35;10.50;3.90
6443;DHT22;3254;47.372;8.512;2023-10-13T04:06:04;10.40;8.10
6443;DHT22;3254;47.372;8.512;2023-10-13T04:08:34;10.50;10.60
6443;DHT22;3254;47.372;8.512;2023-10-13T04:11:09;10.50;9.40
6443;DHT22;3254;47.372;8.512;2023-10-13T04:14:06;10.50;8.00
6443;DHT22;3254;47.372;8.512;2023-10-13T04:16:49;10.60;7.30
6443;DHT22;3254;47.372;8.512;2023-10-13T04:19:20;10.60;7.20
6443;DHT22;3254;47.372;8.512;2023-10-13T04:21:49;10.70;6.10
6443;DHT22;3254;47.372;8.512;2023-10-13T04:24:23;10.70;3.90
6443;DHT22;3254;47.372;8.512;2023-10-13T04:27:05;10.60;3.80
6443;DHT22;3254;47.372;8.512;2023-10-13T04:29:49;10.50;3.50
6443;DHT22;3254;47.372;8.512;2023-10-13T04:32:35;10.40;5.40
6443;DHT22;3254;47.372;8.512;2023-10-13T04:35:07;10.40;8.20
6443;DHT22;3254;47.372;8.512;2023-10-13T04:37:38;10.40;10.70
6443;DHT22;3254;47.372;8.512;2023-10-13T04:40:18;10.50;12.30
6443;DHT22;3254;47.372;8.512;2023-10-13T04:42:45;10.60;11.00
6443;DHT22;3254;47.372;8.512;2023-10-13T04:45:20;10.50;10.10
6443;DHT22;3254;47.372;8.512;2023-10-13T04:48:04;10.40;12.20
6443;DHT22;3254;47.372;8.512;2023-10-13T04:50:46;10.40;15.40
6443;DHT22;3254;47.372;8.512;2023-10-13T04:53:16;10.40;18.70
6443;DHT22;3254;47.372;8.512;2023-10-13T04:56:20;10.50;20.70
6443;DHT22;3254;47.372;8.512;2023-10-13T04:59:04;10.60;19.50
6443;DHT22;3254;47.372;8.512;2023-10-13T05:01:48;10.50;21.40
6443;DHT22;3254;47.372;8.512;2023-10-13T05:04:23;10.50;24.30
6443;DHT22;3254;47.372;8.512;2023-10-13T05:07:04;10.50;24.40
6443;DHT22;3254;47.372;8.512;2023-10-13T05:09:49;10.40;26.20
6443;DHT22;3254;47.372;8.512;2023-10-13T05:12:33;10.50;26.10
6443;DHT22;3254;47.372;8.512;2023-10-13T05:15:19;10.60;27.40
6443;DHT22;3254;47.372;8.512;2023-10-13T05:18:03;10.60;27.00
6443;DHT22;3254;47.372;8.512;2023-10-13T05:20:48;10.60;27.20
6443;DHT22;3254;47.372;8.512;2023-10-13T05:23:32;10.60;29.80
6443;DHT22;3254;47.372;8.512;2023-10-13T05:26:16;10.70;30.90
6443;DHT22;3254;47.372;8.512;2023-10-13T05:29:00;10.60;30.30
6443;DHT22;3254;47.372;8.512;2023-10-13T05:31:45;10.60;30.90
6443;DHT22;3254;47.372;8.512;2023-10-13T05:34:29;10.50;33.30
6443;DHT22;3254;47.372;8.512;2023-10-13T05:37:13;10.50;32.50
6443;DHT22;3254;47.372;8.512;2023-10-13T05:39:58;10.50;28.20
6443;DHT22;3254;47.372;8.512;2023-10-13T05:42:42;10.40;27.50
6443;DHT22;3254;47.372;8.512;2023-10-13T05:45:26;10.30;28.20
6443;DHT22;3254;47.372;8.512;2023-10-13T05:48:10;10.30;28.20
6443;DHT22;3254;47.372;8.512;2023-10-13T05:50:44;10.20;27.50
6443;DHT22;3254;47.372;8.512;2023-10-13T05:53:35;10.20;29.00
6443;DHT22;3254;47.372;8.512;2023-10-13T05:56:19;10.10;31.70
6443;DHT22;3254;47.372;8.512;2023-10-13T05:59:04;10.10;36.30
6443;DHT22;3254;47.372;8.512;2023-10-13T06:01:48;10.10;38.70
6443;DHT22;3254;47.372;8.512;2023-10-13T06:04:32;10.10;38.60
6443;DHT22;3254;47.372;8.512;2023-10-13T06:07:16;10.10;39.00
6443;DHT22;3254;47.372;8.512;2023-10-13T06:10:05;10.20;39.30
6443;DHT22;3254;47.372;8.512;2023-10-13T06:12:49;10.10;40.00
6443;DHT22;3254;47.372;8.512;2023-10-13T06:15:36;10.30;37.80
6443;DHT22;3254;47.372;8.512;2023-10-13T06:18:20;10.40;37.70
6443;DHT22;3254;47.372;8.512;2023-10-13T06:21:04;10.40;34.00
6443;DHT22;3254;47.372;8.512;2023-10-13T06:23:49;10.30;34.50
6443;DHT22;3254;47.372;8.512;2023-10-13T06:26:33;10.30;38.30
6443;DHT22;3254;47.372;8.512;2023-10-13T06:29:17;10.40;40.20
6443;DHT22;3254;47.372;8.512;2023-10-13T06:31:45;10.40;38.60
6443;DHT22;3254;47.372;8.512;2023-10-13T06:34:11;10.50;38.20
6443;DHT22;3254;47.372;8.512;2023-10-13T06:36:41;10.60;35.60
6443;DHT22;3254;47.372;8.512;2023-10-13T06:39:07;10.70;35.60
6443;DHT22;3254;47.372;8.512;2023-10-13T06:42:12;10.70;34.90
6443;DHT22;3254;47.372;8.512;2023-10-13T06:44:37;10.80;33.20
6443;DHT22;3254;47.372;8.512;2023-10-13T06:47:05;10.90;32.20
6443;DHT22;3254;47.372;8.512;2023-10-13T06:49:31;11.00;30.20
6443;DHT22;3254;47.372;8.512;2023-10-13T06:52:06;11.00;29.60
6443;DHT22;3254;47.372;8.512;2023-10-13T06:54:32;11.20;27.90
6443;DHT22;3254;47.372;8.512;2023-10-13T06:57:01;11.40;23.90
6443;DHT22;3254;47.372;8.512;2023-10-13T06:59:29;11.60;19.80
6443;DHT22;3254;47.372;8.512;2023-10-13T07:01:58;11.70;16.10
6443;DHT22;3254;47.372;8.512;2023-10-13T07:04:29;11.80;13.60
6443;DHT22;3254;47.372;8.512;2023-10-13T07:06:55;11.90;11.60
6443;DHT22;3254;47.372;8.512;2023-10-13T07:09:21;12.10;8.70
6443;DHT22;3254;47.372;8.512;2023-10-13T07:12:13;12.10;5.90
6443;DHT22;3254;47.372;8.512;2023-10-13T07:14:46;12.10;4.20
6443;DHT22;3254;47.372;8.512;2023-10-13T07:17:18;12.10;3.30
6443;DHT22;3254;47.372;8.512;2023-10-13T07:19:54;12.20;3.10
6443;DHT22;3254;47.372;8.512;2023-10-13T07:22:22;12.40;1.00
6443;DHT22;3254;47.372;8.512;2023-10-13T07:24:49;12.40;1.00
6443;DHT22;3254;47.372;8.512;2023-10-13T07:27:22;12.50;1.00
6443;DHT22;3254;47.372;8.512;2023-10-13T07:29:55;12.60;1.00
6443;DHT22;3254;47.372;8.512;2023-10-13T07:32:23;12.70;1.00
6443;DHT22;3254;47.372;8.512;2023-10-13T07:34:55;13.00;1.00
6443;DHT22;3254;47.372;8.512;2023-10-13T07:37:23;13.60;1.00
6443;DHT22;3254;47.372;8.512;2023-10-13T07:39:54;14.90;1.00
6443;DHT22;3254;47.372;8.512;2023-10-13T07:42:26;16.20;1.00
6443;DHT22;3254;47.372;8.512;2023-10-13T07:44:58;17.50;1.00
6443;DHT22;3254;47.372;8.512;2023-10-13T07:47:24;18.50;1.00
6443;DHT22;3254;47.372;8.512;2023-10-13T07:49:52;19.40;1.00
6443;DHT22;3254;47.372;8.512;2023-10-13T07:52:17;20.40;1.00
6443;DHT22;3254;47.372;8.512;2023-10-13T07:54:50;20.80;1.00
6443;DHT22;3254;47.372;8.512;2023-10-13T07:57:25;20.70;1.00
6443;DHT22;3254;47.372;8.512;2023-10-13T07:59:57;20.40;1.00
6443;DHT22;3254;47.372;8.512;2023-10-13T08:02:36;19.80;1.00
6443;DHT22;3254;47.372;8.512;2023-10-13T08:05:21;19.00;1.00
6443;DHT22;3254;47.372;8.512;2023-10-13T08:07:55;18.20;1.00
6443;DHT22;3254;47.372;8.512;2023-10-13T08:10:22;17.60;1.00
6443;DHT22;3254;47.372;8.512;2023-10-13T08:12:55;17.20;1.00
6443;DHT22;3254;47.372;8.512;2023-10-13T08:15:23;16.90;1.00
6443;DHT22;3254;47.372;8.512;2023-10-13T08:18:01;16.70;1.00
6443;DHT22;3254;47.372;8.512;2023-10-13T08:20:42;16.60;1.00
6443;DHT22;3254;47.372;8.512;2023-10-13T08:23:09;16.70;1.00
6443;DHT22;3254;47.372;8.512;2023-10-13T08:25:45;16.80;1.00
6443;DHT22;3254;47.372;8.512;2023-10-13T08:28:30;16.70;1.00
6443;DHT22;3254;47.372;8.512;2023-10-13T08:31:05;16.80;1.00
6443;DHT22;3254;47.372;8.512;2023-10-13T08:33:47;16.80;1.00
6443;DHT22;3254;47.372;8.512;2023-10-13T08:36:12;16.90;1.00
6443;DHT22;3254;47.372;8.512;2023-10-13T08:38:54;16.90;1.00
6443;DHT22;3254;47.372;8.512;2023-10-13T08:41:21;17.00;1.00
6443;DHT22;3254;47.372;8.512;2023-10-13T08:43:50;17.10;1.00
6443;DHT22;3254;47.372;8.512;2023-10-13T08:46:17;17.30;1.00
6443;DHT22;3254;47.372;8.512;2023-10-13T08:48:59;17.40;1.00
6443;DHT22;3254;47.372;8.512;2023-10-13T08:51:39;17.60;1.00
6443;DHT22;3254;47.372;8.512;2023-10-13T08:54:12;17.70;1.00
6443;DHT22;3254;47.372;8.512;2023-10-13T08:56:48;18.00;1.00
6443;DHT22;3254;47.372;8.512;2023-10-13T08:59:22;18.40;1.00
6443;DHT22;3254;47.372;8.512;2023-10-13T09:01:59;19.10;1.00
6443;DHT22;3254;47.372;8.512;2023-10-13T09:04:43;20.20;1.00
6443;DHT22;3254;47.372;8.512;2023-10-13T09:07:10;21.60;1.00
6443;DHT22;3254;47.372;8.512;2023-10-13T09:15:10;25.30;1.00
6443;DHT22;3254;47.372;8.512;2023-10-13T09:17:43;26.00;1.00
6443;DHT22;3254;47.372;8.512;2023-10-13T09:20:30;26.50;1.00
6443;DHT22;3254;47.372;8.512;2023-10-13T09:23:13;27.10;1.00
6443;DHT22;3254;47.372;8.512;2023-10-13T09:25:49;27.20;1.00
6443;DHT22;3254;47.372;8.512;2023-10-13T09:28:24;27.20;1.00
6443;DHT22;3254;47.372;8.512;2023-10-13T09:30:54;26.90;1.00
6443;DHT22;3254;47.372;8.512;2023-10-13T09:33:31;27.10;1.00
6443;DHT22;3254;47.372;8.512;2023-10-13T09:36:06;27.80;1.00
6443;DHT22;3254;47.372;8.512;2023-10-13T09:38:38;28.10;1.00
6443;DHT22;3254;47.372;8.512;2023-10-13T09:41:13;27.80;1.00
6443;DHT22;3254;47.372;8.512;2023-10-13T09:43:45;28.00;1.00
6443;DHT22;3254;47.372;8.512;2023-10-13T09:46:18;28.70;1.00
6443;DHT22;3254;47.372;8.512;2023-10-13T09:48:45;28.70;1.00
6443;DHT22;3254;47.372;8.512;2023-10-13T09:51:16;29.40;1.00
6443;DHT22;3254;47.372;8.512;2023-10-13T09:53:58;29.40;1.00
6443;DHT22;3254;47.372;8.512;2023-10-13T09:56:30;29.60;1.00
6443;DHT22;3254;47.372;8.512;2023-10-13T09:59:09;30.00;1.00
6443;DHT22;3254;47.372;8.512;2023-10-13T10:01:43;30.10;1.00
6443;DHT22;3254;47.372;8.512;2023-10-13T10:04:24;30.20;1.00
6443;DHT22;3254;47.372;8.512;2023-10-13T10:06:57;30.30;1.00
6443;DHT22;3254;47.372;8.512;2023-10-13T10:09:32;30.90;1.00
6443;DHT22;3254;47.372;8.512;2023-10-13T10:14:57;31.10;1.00
6443;DHT22;3254;47.372;8.512;2023-10-13T10:17:28;31.40;1.00
6443;DHT22;3254;47.372;8.512;2023-10-13T10:19:55;32.30;1.00
6443;DHT22;3254;47.372;8.512;2023-10-13T10:22:29;32.10;1.00
6443;DHT22;3254;47.372;8.512;2023-10-13T10:25:05;32.10;1.00
6443;DHT22;3254;47.372;8.512;2023-10-13T10:27:57;32.40;1.00
6443;DHT22;3254;47.372;8.512;2023-10-13T10:30:27;32.40;1.00
6443;DHT22;3254;47.372;8.512;2023-10-13T10:32:57;32.30;1.00
6443;DHT22;3254;47.372;8.512;2023-10-13T10:35:27;32.00;1.00
6443;DHT22;3254;47.372;8.512;2023-10-13T10:38:15;32.00;1.00
6443;DHT22;3254;47.372;8.512;2023-10-13T10:40:54;31.70;1.00
6443;DHT22;3254;47.372;8.512;2023-10-13T10:43:44;32.00;1.00
6443;DHT22;3254;47.372;8.512;2023-10-13T10:46:17;32.40;1.00
6443;DHT22;3254;47.372;8.512;2023-10-13T10:48:44;33.10;1.00
6443;DHT22;3254;47.372;8.512;2023-10-13T10:51:11;33.70;1.00
6443;DHT22;3254;47.372;8.512;2023-10-13T10:53:41;33.40;1.00
6443;DHT22;3254;47.372;8.512;2023-10-13T10:56:11;33.40;1.00
6443;DHT22;3254;47.372;8.512;2023-10-13T10:58:50;32.70;1.00
6443;DHT22;3254;47.372;8.512;2023-10-13T11:01:24;33.30;1.00
6443;DHT22;3254;47.372;8.512;2023-10-13T11:04:00;33.20;1.00
6443;DHT22;3254;47.372;8.512;2023-10-13T11:06:46;33.50;1.00
6443;DHT22;3254;47.372;8.512;2023-10-13T11:09:12;33.60;1.00
6443;DHT22;3254;47.372;8.512;2023-10-13T11:11:47;33.30;1.00
6443;DHT22;3254;47.372;8.512;2023-10-13T11:14:28;33.30;1.00
6443;DHT22;3254;47.372;8.512;2023-10-13T11:16:55;33.60;1.00
6443;DHT22;3254;47.372;8.512;2023-10-13T11:19:40;33.80;1.00
6443;DHT22;3254;47.372;8.512;2023-10-13T11:22:13;33.70;1.00
6443;DHT22;3254;47.372;8.512;2023-10-13T11:24:58;34.40;1.00
6443;DHT22;3254;47.372;8.512;2023-10-13T11:27:35;35.10;1.00
6443;DHT22;3254;47.372;8.512;2023-10-13T11:30:13;34.40;1.00
6443;DHT22;3254;47.372;8.512;2023-10-13T11:33:07;34.40;1.00
6443;DHT22;3254;47.372;8.512;2023-10-13T11:35:34;34.60;1.00
6443;DHT22;3254;47.372;8.512;2023-10-13T11:38:34;34.80;1.00
6443;DHT22;3254;47.372;8.512;2023-10-13T11:41:05;35.00;1.00
6443;DHT22;3254;47.372;8.512;2023-10-13T11:43:35;35.40;1.00
6443;DHT22;3254;47.372;8.512;2023-10-13T11:46:25;34.90;1.00
6443;DHT22;3254;47.372;8.512;2023-10-13T11:49:12;35.00;1.00
6443;DHT22;3254;47.372;8.512;2023-10-13T11:51:47;35.20;1.00
6443;DHT22;3254;47.372;8.512;2023-10-13T11:54:13;35.00;1.00
6443;DHT22;3254;47.372;8.512;2023-10-13T11:56:41;35.20;1.00
6443;DHT22;3254;47.372;8.512;2023-10-13T11:59:06;35.60;1.00
6443;DHT22;3254;47.372;8.512;2023-10-13T12:01:42;35.70;1.00
6443;DHT22;3254;47.372;8.512;2023-10-13T12:04:27;35.10;1.00
6443;DHT22;3254;47.372;8.512;2023-10-13T12:06:58;35.20;1.00
6443;DHT22;3254;47.372;8.512;2023-10-13T12:09:46;34.70;1.00
6443;DHT22;3254;47.372;8.512;2023-10-13T12:12:25;35.20;1.00
6443;DHT22;3254;47.372;8.512;2023-10-13T12:14:51;34.80;1.00
6443;DHT22;3254;47.372;8.512;2023-10-13T12:17:23;35.00;1.00
6443;DHT22;3254;47.372;8.512;2023-10-13T12:20:04;35.10;1.00
6443;DHT22;3254;47.372;8.512;2023-10-13T12:22:31;35.00;1.00
6443;DHT22;3254;47.372;8.512;2023-10-13T12:25:08;35.20;1.00
6443;DHT22;3254;47.372;8.512;2023-10-13T12:27:53;35.30;1.00
6443;DHT22;3254;47.372;8.512;2023-10-13T12:30:23;35.60;1.00
6443;DHT22;3254;47.372;8.512;2023-10-13T12:33:04;35.50;1.00
6443;DHT22;3254;47.372;8.512;2023-10-13T12:35:35;35.70;1.00
6443;DHT22;3254;47.372;8.512;2023-10-13T12:38:10;36.20;1.00
6443;DHT22;3254;47.372;8.512;2023-10-13T12:41:04;36.80;1.00
6443;DHT22;3254;47.372;8.512;2023-10-13T12:43:48;37.30;1.00
6443;DHT22;3254;47.372;8.512;2023-10-13T12:46:37;37.60;1.00
6443;DHT22;3254;47.372;8.512;2023-10-13T12:49:21;37.80;1.00
6443;DHT22;3254;47.372;8.512;2023-10-13T12:52:05;37.30;1.00
6443;DHT22;3254;47.372;8.512;2023-10-13T12:54:44;36.60;1.00
6443;DHT22;3254;47.372;8.512;2023-10-13T12:57:24;36.50;1.00
6443;DHT22;3254;47.372;8.512;2023-10-13T12:59:50;34.00;1.00
6443;DHT22;3254;47.372;8.512;2023-10-13T13:02:24;33.30;1.00
6443;DHT22;3254;47.372;8.512;2023-10-13T13:04:56;33.10;1.00
6443;DHT22;3254;47.372;8.512;2023-10-13T13:07:27;32.70;1.00
6443;DHT22;3254;47.372;8.512;2023-10-13T13:09:55;33.00;1.00
6443;DHT22;3254;47.372;8.512;2023-10-13T13:12:24;33.40;1.00
6443;DHT22;3254;47.372;8.512;2023-10-13T13:14:50;33.30;1.00
6443;DHT22;3254;47.372;8.512;2023-10-13T13:17:20;34.00;1.00
6443;DHT22;3254;47.372;8.512;2023-10-13T13:19:46;34.50;1.00
6443;DHT22;3254;47.372;8.512;2023-10-13T13:22:12;33.60;1.00
6443;DHT22;3254;47.372;8.512;2023-10-13T13:24:38;33.80;1.00
6443;DHT22;3254;47.372;8.512;2023-10-13T13:27:12;33.30;1.00
6443;DHT22;3254;47.372;8.512;2023-10-13T13:29:45;33.80;1.00
6443;DHT22;3254;47.372;8.512;2023-10-13T13:32:11;33.30;1.00
6443;DHT22;3254;47.372;8.512;2023-10-13T13:34:45;32.30;1.00
6443;DHT22;3254;47.372;8.512;2023-10-13T13:37:10;32.50;1.00
6443;DHT22;3254;47.372;8.512;2023-10-13T13:39:38;31.80;1.00
6443;DHT22;3254;47.372;8.512;2023-10-13T13:42:09;31.30;1.00
6443;DHT22;3254;47.372;8.512;2023-10-13T13:44:35;31.00;1.00
6443;DHT22;3254;47.372;8.512;2023-10-13T13:47:03;30.90;1.00
6443;DHT22;3254;47.372;8.512;2023-10-13T13:49:38;30.30;1.00
6443;DHT22;3254;47.372;8.512;2023-10-13T13:52:07;30.50;1.00
6443;DHT22;3254;47.372;8.512;2023-10-13T13:54:32;30.30;1.00
6443;DHT22;3254;47.372;8.512;2023-10-13T13:56:58;30.60;1.00
6443;DHT22;3254;47.372;8.512;2023-10-13T13:59:24;30.30;1.00
6443;DHT22;3254;47.372;8.512;2023-10-13T14:01:49;30.40;1.00
6443;DHT22;3254;47.372;8.512;2023-10-13T14:04:18;30.50;1.00
6443;DHT22;3254;47.372;8.512;2023-10-13T14:06:44;30.30;1.00
6443;DHT22;3254;47.372;8.512;2023-10-13T14:09:10;31.10;1.00
6443;DHT22;3254;47.372;8.512;2023-10-13T14:12:12;31.30;1.00
6443;DHT22;3254;47.372;8.512;2023-10-13T14:15:08;31.40;1.00
6443;DHT22;3254;47.372;8.512;2023-10-13T14:17:46;31.00;1.00
6443;DHT22;3254;47.372;8.512;2023-10-13T14:20:12;31.70;1.00
6443;DHT22;3254;47.372;8.512;2023-10-13T14:22:44;31.80;1.00
6443;DHT22;3254;47.372;8.512;2023-10-13T14:25:13;32.30;1.00
6443;DHT22;3254;47.372;8.512;2023-10-13T14:27:41;33.00;1.00
6443;DHT22;3254;47.372;8.512;2023-10-13T14:30:07;32.70;1.00
6443;DHT22;3254;47.372;8.512;2023-10-13T14:32:32;32.60;1.00
6443;DHT22;3254;47.372;8.512;2023-10-13T14:35:04;33.30;1.00
6443;DHT22;3254;47.372;8.512;2023-10-13T14:37:40;33.00;1.00
6443;DHT22;3254;47.372;8.512;2023-10-13T14:40:06;32.70;1.00
6443;DHT22;3254;47.372;8.512;2023-10-13T14:42:37;32.10;1.00
6443;DHT22;3254;47.372;8.512;2023-10-13T14:45:06;33.00;1.00
6443;DHT22;3254;47.372;8.512;2023-10-13T14:47:38;32.60;1.00
6443;DHT22;3254;47.372;8.512;2023-10-13T14:50:05;33.10;1.00
6443;DHT22;3254;47.372;8.512;2023-10-13T14:52:31;33.00;1.00
6443;DHT22;3254;47.372;8.512;2023-10-13T14:55:00;33.30;1.00
6443;DHT22;3254;47.372;8.512;2023-10-13T14:57:26;32.80;1.00
6443;DHT22;3254;47.372;8.512;2023-10-13T14:59:56;33.30;1.00
6443;DHT22;3254;47.372;8.512;2023-10-13T15:02:23;33.50;1.00
6443;DHT22;3254;47.372;8.512;2023-10-13T15:04:48;32.70;1.00
6443;DHT22;3254;47.372;8.512;2023-10-13T15:07:15;32.60;1.00
6443;DHT22;3254;47.372;8.512;2023-10-13T15:09:42;33.00;1.00
6443;DHT22;3254;47.372;8.512;2023-10-13T15:12:08;34.00;1.00
6443;DHT22;3254;47.372;8.512;2023-10-13T15:14:37;34.00;1.00
6443;DHT22;3254;47.372;8.512;2023-10-13T15:17:02;33.40;1.00
6443;DHT22;3254;47.372;8.512;2023-10-13T15:19:32;33.20;1.00
6443;DHT22;3254;47.372;8.512;2023-10-13T15:22:02;33.40;1.00
6443;DHT22;3254;47.372;8.512;2023-10-13T15:24:28;33.40;1.00
6443;DHT22;3254;47.372;8.512;2023-10-13T15:26:54;33.30;1.00
6443;DHT22;3254;47.372;8.512;2023-10-13T15:29:27;33.70;1.00
6443;DHT22;3254;47.372;8.512;2023-10-13T15:32:00;33.10;1.00
6443;DHT22;3254;47.372;8.512;2023-10-13T15:34:26;33.50;1.00
6443;DHT22;3254;47.372;8.512;2023-10-13T15:36:53;33.40;1.00
6443;DHT22;3254;47.372;8.512;2023-10-13T15:39:20;33.30;1.00
6443;DHT22;3254;47.372;8.512;2023-10-13T15:41:52;33.90;1.00
6443;DHT22;3254;47.372;8.512;2023-10-13T15:44:19;33.90;1.00
6443;DHT22;3254;47.372;8.512;2023-10-13T15:46:46;33.60;1.00
6443;DHT22;3254;47.372;8.512;2023-10-13T15:49:17;33.70;1.00
6443;DHT22;3254;47.372;8.512;2023-10-13T15:51:43;33.30;1.00
6443;DHT22;3254;47.372;8.512;2023-10-13T15:54:09;32.50;1.00
6443;DHT22;3254;47.372;8.512;2023-10-13T15:56:45;32.60;1.00
6443;DHT22;3254;47.372;8.512;2023-10-13T15:59:11;32.00;1.00
6443;DHT22;3254;47.372;8.512;2023-10-13T16:01:37;31.30;1.00
6443;DHT22;3254;47.372;8.512;2023-10-13T16:04:05;30.70;1.00
6443;DHT22;3254;47.372;8.512;2023-10-13T16:06:40;29.80;1.00
6443;DHT22;3254;47.372;8.512;2023-10-13T16:09:07;29.00;1.00
6443;DHT22;3254;47.372;8.512;2023-10-13T16:11:45;28.10;1.00
6443;DHT22;3254;47.372;8.512;2023-10-13T16:14:12;27.10;1.00
6443;DHT22;3254;47.372;8.512;2023-10-13T16:16:49;26.60;1.00
6443;DHT22;3254;47.372;8.512;2023-10-13T16:19:20;25.90;1.00
6443;DHT22;3254;47.372;8.512;2023-10-13T16:21:53;25.40;1.00
6443;DHT22;3254;47.372;8.512;2023-10-13T16:24:19;25.10;1.00
6443;DHT22;3254;47.372;8.512;2023-10-13T16:26:46;24.80;1.00
6443;DHT22;3254;47.372;8.512;2023-10-13T16:29:15;24.70;1.00
6443;DHT22;3254;47.372;8.512;2023-10-13T16:31:41;24.70;1.00
6443;DHT22;3254;47.372;8.512;2023-10-13T16:34:13;24.50;1.00
6443;DHT22;3254;47.372;8.512;2023-10-13T16:36:45;24.50;1.00
6443;DHT22;3254;47.372;8.512;2023-10-13T16:39:11;24.40;1.00
6443;DHT22;3254;47.372;8.512;2023-10-13T16:41:40;24.30;1.00
6443;DHT22;3254;47.372;8.512;2023-10-13T16:44:06;24.10;1.00
6443;DHT22;3254;47.372;8.512;2023-10-13T16:46:36;24.10;1.00
6443;DHT22;3254;47.372;8.512;2023-10-13T16:49:02;23.70;1.00
6443;DHT22;3254;47.372;8.512;2023-10-13T16:51:27;23.70;1.00
6443;DHT22;3254;47.372;8.512;2023-10-13T16:53:54;23.80;1.00
6443;DHT22;3254;47.372;8.512;2023-10-13T16:56:21;23.70;1.00
6443;DHT22;3254;47.372;8.512;2023-10-13T16:58:47;23.70;1.00
6443;DHT22;3254;47.372;8.512;2023-10-13T17:01:14;23.70;1.00
6443;DHT22;3254;47.372;8.512;2023-10-13T17:03:41;23.70;1.00